Time;durP1;ratioP1;P1;durP2;ratioP2;P2;SDS_P1;SDS_P2;PMS_P1;PMS_P2;Temp;Humidity;BMP_temperature;BMP_pressure;BME280_temperature;BME280_humidity;BME280_pressure;Samples;Min_cycle;Max_cycle;Signal;HPM_P1;HPM_P2
2023/12/02 00:00:22;;;;;;;21.05;13.18;;;1.70;99.90;;;;;;4153686;28;20041;-73
2023/12/02 00:02:23;;;;;;;18.70;11.45;;;1.60;99.90;;;;;;4153193;28;20029;-73
2023/12/02 00:04:23;;;;;;;21.58;13.45;;;1.70;99.90;;;;;;4171742;28;20060;-73
2023/12/02 00:06:24;;;;;;;21.25;13.27;;;1.70;99.90;;;;;;4164475;28;20479;-73
2023/12/02 00:08:25;;;;;;;18.33;12.10;;;1.70;99.90;;;;;;4172414;28;20098;-73
2023/12/02 00:10:26;;;;;;;24.63;14.57;;;1.70;99.90;;;;;;4171333;28;20029;-73
2023/12/02 00:12:26;;;;;;;21.75;13.32;;;1.70;99.90;;;;;;4167746;28;20124;-73
2023/12/02 00:14:27;;;;;;;20.95;12.98;;;1.70;99.90;;;;;;4167581;28;20495;-73
2023/12/02 00:16:28;;;;;;;18.85;11.80;;;1.70;99.90;;;;;;4173274;28;20398;-74
2023/12/02 00:18:28;;;;;;;23.63;14.57;;;1.70;99.90;;;;;;4153861;28;20030;-73
2023/12/02 00:20:29;;;;;;;21.75;12.95;;;1.70;99.90;;;;;;4166909;28;20651;-73
2023/12/02 00:22:29;;;;;;;22.45;13.85;;;1.70;99.90;;;;;;4155016;28;20056;-73
2023/12/02 00:24:30;;;;;;;18.67;11.70;;;1.70;99.90;;;;;;4170525;28;20550;-73
2023/12/02 00:26:30;;;;;;;20.02;12.23;;;1.70;99.90;;;;;;4168833;28;20040;-73
2023/12/02 00:28:31;;;;;;;19.92;11.93;;;1.70;99.90;;;;;;4164389;28;20030;-73
2023/12/02 00:30:32;;;;;;;19.13;12.35;;;1.70;99.90;;;;;;4148637;28;20243;-73
2023/12/02 00:32:32;;;;;;;21.02;12.45;;;1.70;99.90;;;;;;4172037;28;20032;-73
2023/12/02 00:34:33;;;;;;;22.30;13.27;;;1.70;99.90;;;;;;4165663;28;20040;-73
2023/12/02 00:36:33;;;;;;;19.50;12.38;;;1.60;99.90;;;;;;4150662;28;20419;-73
2023/12/02 00:38:34;;;;;;;18.40;11.75;;;1.70;99.90;;;;;;4169713;28;20191;-73
2023/12/02 00:40:35;;;;;;;19.58;11.85;;;1.70;99.90;;;;;;4164000;28;20029;-73
2023/12/02 00:42:35;;;;;;;21.95;12.93;;;1.70;99.90;;;;;;4168253;28;20029;-73
2023/12/02 00:44:36;;;;;;;18.30;11.52;;;1.70;99.90;;;;;;4174761;28;20037;-73
2023/12/02 00:46:36;;;;;;;19.10;11.85;;;1.70;99.90;;;;;;4161958;28;20041;-73
2023/12/02 00:48:37;;;;;;;15.80;10.00;;;1.70;99.90;;;;;;4167981;28;20040;-73
2023/12/02 00:50:38;;;;;;;18.13;10.55;;;1.70;99.90;;;;;;4150369;28;20060;-73
2023/12/02 00:52:38;;;;;;;17.50;10.50;;;1.70;99.90;;;;;;4169761;28;20513;-73
2023/12/02 00:54:39;;;;;;;16.75;10.05;;;1.70;99.90;;;;;;4152905;28;20029;-73
2023/12/02 00:56:39;;;;;;;15.25;9.65;;;1.70;99.90;;;;;;4169823;28;20083;-73
2023/12/02 00:58:40;;;;;;;16.33;9.80;;;1.70;99.90;;;;;;4168740;28;20022;-73
2023/12/02 01:00:41;;;;;;;18.02;10.07;;;1.70;99.90;;;;;;4164713;28;20021;-73
2023/12/02 01:02:42;;;;;;;14.40;9.05;;;1.70;99.90;;;;;;4173548;28;20021;-73
2023/12/02 01:04:43;;;;;;;16.13;9.60;;;1.70;99.90;;;;;;4169330;28;20025;-73
2023/12/02 01:06:43;;;;;;;15.80;9.68;;;1.70;99.90;;;;;;4145555;28;20029;-72
2023/12/02 01:08:44;;;;;;;16.35;10.07;;;1.70;99.90;;;;;;4164949;28;20086;-73
2023/12/02 01:10:44;;;;;;;17.67;10.40;;;1.70;99.90;;;;;;4142753;28;20503;-73
2023/12/02 01:12:45;;;;;;;16.23;9.90;;;1.70;99.90;;;;;;4154892;28;20495;-73
2023/12/02 01:14:45;;;;;;;16.20;10.15;;;1.70;99.90;;;;;;4170411;28;20044;-73
2023/12/02 01:16:46;;;;;;;16.08;10.55;;;1.70;99.90;;;;;;4166183;28;20030;-74
2023/12/02 01:18:47;;;;;;;14.80;9.43;;;1.70;99.90;;;;;;4166417;28;20041;-73
2023/12/02 01:20:47;;;;;;;15.27;9.38;;;1.70;99.90;;;;;;4164498;28;20061;-72
2023/12/02 01:22:48;;;;;;;16.73;10.23;;;1.70;99.90;;;;;;4172798;28;20045;-73
2023/12/02 01:24:49;;;;;;;15.18;8.98;;;1.70;99.90;;;;;;4170362;28;20047;-73
2023/12/02 01:26:49;;;;;;;14.30;8.77;;;1.70;99.90;;;;;;4170159;28;20025;-73
2023/12/02 01:28:50;;;;;;;15.98;8.75;;;1.70;99.90;;;;;;4172188;28;20033;-73
2023/12/02 01:30:50;;;;;;;13.80;8.27;;;1.70;99.90;;;;;;4166616;28;20034;-73
2023/12/02 01:32:51;;;;;;;14.45;8.70;;;1.70;99.90;;;;;;4162296;28;20121;-73
2023/12/02 01:34:51;;;;;;;13.60;8.20;;;1.70;99.90;;;;;;4169791;28;20364;-72
2023/12/02 01:36:52;;;;;;;12.27;7.95;;;1.70;99.90;;;;;;4168586;28;20421;-72
2023/12/02 01:38:53;;;;;;;15.45;8.80;;;1.70;99.90;;;;;;4168152;28;20403;-73
2023/12/02 01:40:53;;;;;;;15.10;9.27;;;1.70;99.90;;;;;;4169600;28;20526;-73
2023/12/02 01:42:54;;;;;;;13.13;8.30;;;1.70;99.90;;;;;;4160225;28;20111;-73
2023/12/02 01:44:54;;;;;;;14.15;8.95;;;1.70;99.90;;;;;;4147121;28;20026;-73
2023/12/02 01:46:55;;;;;;;14.93;8.70;;;1.70;99.90;;;;;;4172183;28;20029;-73
2023/12/02 01:48:58;;;;;;;14.20;8.23;;;1.70;99.90;;;;;;4168477;28;20124;-73
2023/12/02 01:50:59;;;;;;;14.95;8.35;;;1.70;99.90;;;;;;4167332;28;20056;-73
2023/12/02 01:52:59;;;;;;;15.30;8.50;;;1.70;99.90;;;;;;4142967;28;20393;-73
2023/12/02 01:55:00;;;;;;;13.55;8.65;;;1.70;99.90;;;;;;4163798;28;20512;-72
2023/12/02 01:57:01;;;;;;;14.30;8.23;;;1.70;99.90;;;;;;4163474;28;20495;-73
2023/12/02 01:59:02;;;;;;;14.05;8.48;;;1.60;99.90;;;;;;4168985;28;20407;-73
2023/12/02 02:01:04;;;;;;;13.52;7.78;;;1.70;99.90;;;;;;4166471;28;20044;-73
2023/12/02 02:03:05;;;;;;;;;;;1.60;99.90;;;;;;4168984;28;20463;-73
2023/12/02 02:05:06;;;;;;;13.13;7.57;;;1.60;99.90;;;;;;4166583;28;19917;-73
2023/12/02 02:07:07;;;;;;;13.82;8.52;;;1.60;99.90;;;;;;4148700;28;20049;-73
2023/12/02 02:09:08;;;;;;;12.50;7.93;;;1.60;99.90;;;;;;4163866;28;20404;-73
2023/12/02 02:11:09;;;;;;;12.70;7.75;;;1.60;99.90;;;;;;4168987;28;20033;-74
2023/12/02 02:13:09;;;;;;;14.18;8.30;;;1.60;99.90;;;;;;4169732;28;20040;-72
2023/12/02 02:15:10;;;;;;;11.85;7.68;;;1.60;99.90;;;;;;4159476;28;20557;-73
2023/12/02 02:17:11;;;;;;;13.13;8.30;;;1.60;99.90;;;;;;4169093;28;20036;-72
2023/12/02 02:19:13;;;;;;;12.43;7.75;;;1.60;99.90;;;;;;4141663;28;20837;-71
2023/12/02 02:21:20;;;;;;;14.07;8.05;;;1.60;99.90;;;;;;4165820;28;20033;-72
2023/12/02 02:23:23;;;;;;;14.00;8.27;;;1.60;99.90;;;;;;4147623;28;20033;-72
2023/12/02 02:25:24;;;;;;;12.60;7.38;;;1.60;99.90;;;;;;4163914;28;21507;-72
2023/12/02 02:27:24;;;;;;;12.00;7.30;;;1.70;99.90;;;;;;4168003;28;20033;-72
2023/12/02 02:29:25;;;;;;;11.80;7.78;;;1.60;99.90;;;;;;4163452;28;20047;-72
2023/12/02 02:31:26;;;;;;;14.02;7.47;;;1.60;99.90;;;;;;4171388;28;20036;-73
2023/12/02 02:33:26;;;;;;;10.95;6.72;;;1.70;99.90;;;;;;4169143;28;20500;-72
2023/12/02 02:35:27;;;;;;;12.23;7.32;;;1.70;99.90;;;;;;4170086;28;20507;-71
2023/12/02 02:37:28;;;;;;;10.15;7.03;;;1.60;99.90;;;;;;4170274;28;20071;-72
2023/12/02 02:39:28;;;;;;;14.75;8.20;;;1.70;99.90;;;;;;4164912;28;20057;-71
2023/12/02 02:41:29;;;;;;;13.43;7.50;;;1.70;99.90;;;;;;4166386;28;20377;-72
2023/12/02 02:43:30;;;;;;;11.07;7.50;;;1.70;99.90;;;;;;4170153;28;20032;-73
2023/12/02 02:45:31;;;;;;;11.23;7.18;;;1.70;99.90;;;;;;4147924;28;20049;-72
2023/12/02 02:47:32;;;;;;;12.55;7.25;;;1.70;99.90;;;;;;4173824;28;20513;-72
2023/12/02 02:49:32;;;;;;;10.45;6.65;;;1.70;99.90;;;;;;4166091;28;20040;-73
2023/12/02 02:51:33;;;;;;;12.07;6.97;;;1.70;99.90;;;;;;4166285;28;20079;-72
2023/12/02 02:53:33;;;;;;;11.43;7.10;;;1.70;99.90;;;;;;4166969;28;20057;-72
2023/12/02 02:55:34;;;;;;;12.20;7.65;;;1.70;99.90;;;;;;4164681;28;20037;-72
2023/12/02 02:57:35;;;;;;;10.55;6.40;;;1.70;99.90;;;;;;4167457;28;20507;-72
2023/12/02 02:59:35;;;;;;;9.20;6.35;;;1.70;99.90;;;;;;4167213;28;20048;-72
2023/12/02 03:01:38;;;;;;;10.57;6.55;;;1.70;99.90;;;;;;4167366;28;20060;-73
2023/12/02 03:03:39;;;;;;;10.05;5.95;;;1.70;99.90;;;;;;4144672;28;20516;-72
2023/12/02 03:05:40;;;;;;;10.43;6.47;;;1.70;99.90;;;;;;4170477;28;20112;-71
2023/12/02 03:07:41;;;;;;;10.98;6.32;;;1.70;99.90;;;;;;4168355;28;20052;-72
2023/12/02 03:09:41;;;;;;;11.63;6.72;;;1.70;99.90;;;;;;4158602;28;20071;-72
2023/12/02 03:11:43;;;;;;;8.95;6.03;;;1.60;99.90;;;;;;4168358;28;20052;-72
2023/12/02 03:13:43;;;;;;;9.93;5.70;;;1.70;99.90;;;;;;4170406;28;20041;-72
2023/12/02 03:15:44;;;;;;;8.60;5.40;;;1.60;99.90;;;;;;4162915;28;20398;-72
2023/12/02 03:17:44;;;;;;;9.77;5.57;;;1.60;99.90;;;;;;4170755;28;20061;-72
2023/12/02 03:19:46;;;;;;;9.50;5.63;;;1.50;99.90;;;;;;4170288;28;20033;-72
2023/12/02 03:21:47;;;;;;;11.70;6.22;;;1.50;99.90;;;;;;4166635;28;20026;-73
2023/12/02 03:23:49;;;;;;;11.80;6.53;;;1.50;99.90;;;;;;4170326;28;20497;-73
2023/12/02 03:25:50;;;;;;;;;;;1.50;99.90;;;;;;4173611;28;20121;-73
2023/12/02 03:27:51;;;;;;;9.82;5.63;;;1.50;99.90;;;;;;4173718;28;19920;-74
2023/12/02 03:29:51;;;;;;;10.85;5.95;;;1.50;99.90;;;;;;4166144;28;20125;-73
2023/12/02 03:31:52;;;;;;;9.93;6.03;;;1.50;99.90;;;;;;4165367;28;20443;-73
2023/12/02 03:33:53;;;;;;;8.43;5.80;;;1.50;99.90;;;;;;4170442;28;20160;-73
2023/12/02 03:35:54;;;;;;;9.18;6.05;;;1.50;99.90;;;;;;4163705;28;20483;-74
2023/12/02 03:37:54;;;;;;;11.00;6.10;;;1.50;99.90;;;;;;4163788;28;20496;-74
2023/12/02 03:39:55;;;;;;;9.80;6.15;;;1.50;99.90;;;;;;4168181;28;20045;-73
2023/12/02 03:41:56;;;;;;;9.73;5.97;;;1.60;99.90;;;;;;4149109;28;20400;-73
2023/12/02 03:43:56;;;;;;;9.10;6.10;;;1.50;99.90;;;;;;4151308;28;20544;-73
2023/12/02 03:45:59;;;;;;;9.00;5.55;;;1.50;99.90;;;;;;4168995;28;20409;-73
2023/12/02 03:48:00;;;;;;;8.77;5.70;;;1.50;99.90;;;;;;4170315;28;20382;-73
2023/12/02 03:50:00;;;;;;;10.07;6.35;;;1.50;99.90;;;;;;4145687;28;20030;-74
2023/12/02 03:52:01;;;;;;;8.55;5.72;;;1.50;99.90;;;;;;4153714;28;20459;-73
2023/12/02 03:54:02;;;;;;;10.82;6.22;;;1.50;99.90;;;;;;4144576;28;20538;-73
2023/12/02 03:56:03;;;;;;;9.73;6.07;;;1.50;99.90;;;;;;4168980;28;20407;-73
2023/12/02 03:58:03;;;;;;;8.82;5.50;;;1.50;99.90;;;;;;4144381;28;20040;-73
2023/12/02 04:00:10;;;;;;;9.10;6.28;;;1.50;99.90;;;;;;4152775;28;20065;-73
2023/12/02 04:02:11;;;;;;;9.68;5.72;;;1.50;99.90;;;;;;4175830;28;20033;-73
2023/12/02 04:04:13;;;;;;;9.63;5.90;;;1.50;99.90;;;;;;4167336;28;20068;-74
2023/12/02 04:06:13;;;;;;;11.48;6.28;;;1.50;99.90;;;;;;4167411;28;20091;-73
2023/12/02 04:08:14;;;;;;;11.65;6.63;;;1.50;99.90;;;;;;4134101;28;20047;-73
2023/12/02 04:10:15;;;;;;;9.85;6.43;;;1.50;99.90;;;;;;4170687;28;20040;-73
2023/12/02 04:12:15;;;;;;;10.02;6.10;;;1.50;99.90;;;;;;4169095;28;20110;-73
2023/12/02 04:14:16;;;;;;;9.48;6.18;;;1.50;99.90;;;;;;4170727;28;20046;-73
2023/12/02 04:16:16;;;;;;;10.05;6.35;;;1.50;99.90;;;;;;4173475;28;20057;-73
2023/12/02 04:18:17;;;;;;;9.93;6.40;;;1.50;99.90;;;;;;4163802;28;20040;-74
2023/12/02 04:20:18;;;;;;;10.60;6.57;;;1.50;99.90;;;;;;4169809;28;20040;-73
2023/12/02 04:22:19;;;;;;;10.40;6.82;;;1.50;99.90;;;;;;4166267;28;20037;-73
2023/12/02 04:24:19;;;;;;;12.23;7.18;;;1.50;99.90;;;;;;4167574;28;20515;-73
2023/12/02 04:26:20;;;;;;;10.95;6.85;;;1.60;99.90;;;;;;4167056;28;20032;-73
2023/12/02 04:28:21;;;;;;;10.70;6.53;;;1.50;99.90;;;;;;4168633;28;20049;-73
2023/12/02 04:30:21;;;;;;;11.85;6.68;;;1.50;99.90;;;;;;4165415;28;20041;-74
2023/12/02 04:32:22;;;;;;;11.23;6.72;;;1.50;99.90;;;;;;4170280;28;20032;-75
2023/12/02 04:34:23;;;;;;;10.80;6.70;;;1.50;99.90;;;;;;4170478;28;20049;-74
2023/12/02 04:36:24;;;;;;;10.80;6.68;;;1.50;99.90;;;;;;4152880;28;20529;-75
2023/12/02 04:38:25;;;;;;;11.70;7.90;;;1.50;99.90;;;;;;4171095;28;20124;-74
2023/12/02 04:40:26;;;;;;;11.02;7.38;;;1.50;99.90;;;;;;4170077;28;22193;-74
2023/12/02 04:42:27;;;;;;;11.38;6.95;;;1.60;99.90;;;;;;4166829;28;20049;-74
2023/12/02 04:44:27;;;;;;;12.30;7.38;;;1.60;99.90;;;;;;4168919;28;20033;-75
2023/12/02 04:46:28;;;;;;;9.55;6.40;;;1.60;99.90;;;;;;4162922;28;20048;-75
2023/12/02 04:48:29;;;;;;;12.23;6.95;;;1.60;99.90;;;;;;4167328;28;20048;-74
2023/12/02 04:50:29;;;;;;;11.45;6.55;;;1.60;99.90;;;;;;4170877;28;20381;-75
2023/12/02 04:52:30;;;;;;;11.60;6.80;;;1.60;99.90;;;;;;4174917;28;20041;-74
2023/12/02 04:54:33;;;;;;;10.68;6.88;;;1.50;99.90;;;;;;4162684;28;20031;-74
2023/12/02 04:56:34;;;;;;;13.73;8.00;;;1.60;99.90;;;;;;4151840;28;20124;-75
2023/12/02 04:58:35;;;;;;;11.60;7.75;;;1.60;99.90;;;;;;4172144;28;20094;-74
2023/12/02 05:00:35;;;;;;;10.75;7.47;;;1.50;99.90;;;;;;4162879;28;20025;-75
2023/12/02 05:02:36;;;;;;;13.27;8.27;;;1.60;99.90;;;;;;4173427;28;20044;-75
2023/12/02 05:04:36;;;;;;;12.10;7.43;;;1.60;99.90;;;;;;4173896;28;20554;-74
2023/12/02 05:06:38;;;;;;;12.32;7.53;;;1.60;99.90;;;;;;4170465;28;22682;-74
2023/12/02 05:08:38;;;;;;;13.70;8.52;;;1.50;99.90;;;;;;4148523;28;20108;-74
2023/12/02 05:10:39;;;;;;;13.65;8.70;;;1.50;99.90;;;;;;4164619;28;20124;-74
2023/12/02 05:12:40;;;;;;;13.80;8.18;;;1.50;99.90;;;;;;4153412;28;20522;-74
2023/12/02 05:14:40;;;;;;;12.45;7.60;;;1.50;99.90;;;;;;4172635;28;20399;-74
2023/12/02 05:16:42;;;;;;;15.52;9.15;;;1.50;99.90;;;;;;4165648;28;20029;-74
2023/12/02 05:18:43;;;;;;;13.57;8.10;;;1.50;99.90;;;;;;4163061;28;20123;-74
2023/12/02 05:20:43;;;;;;;14.35;8.65;;;1.50;99.90;;;;;;4169594;28;20057;-74
2023/12/02 05:22:44;;;;;;;12.27;7.82;;;1.30;99.90;;;;;;4166925;28;20524;-75
2023/12/02 05:24:45;;;;;;;15.20;8.27;;;1.20;99.90;;;;;;4168571;28;20485;-74
2023/12/02 05:26:46;;;;;;;11.73;7.10;;;1.20;99.90;;;;;;4145099;28;20399;-74
2023/12/02 05:28:46;;;;;;;12.90;7.30;;;1.30;99.90;;;;;;4162408;28;20415;-75
2023/12/02 05:30:47;;;;;;;13.18;8.00;;;1.30;99.90;;;;;;4165659;28;20032;-75
2023/12/02 05:32:48;;;;;;;14.68;8.95;;;1.30;99.90;;;;;;4174392;28;20074;-74
2023/12/02 05:34:48;;;;;;;15.07;8.43;;;1.20;99.90;;;;;;4165617;28;20037;-75
2023/12/02 05:36:49;;;;;;;15.95;9.00;;;1.20;99.90;;;;;;4165658;28;20107;-75
2023/12/02 05:38:49;;;;;;;13.80;7.93;;;1.20;99.90;;;;;;4165870;28;20056;-74
2023/12/02 05:40:50;;;;;;;13.23;7.80;;;1.10;99.90;;;;;;4167523;28;20033;-75
2023/12/02 05:42:51;;;;;;;14.45;8.52;;;1.10;99.90;;;;;;4143380;28;20632;-72
2023/12/02 05:44:51;;;;;;;13.88;8.18;;;1.20;99.90;;;;;;4159297;28;20022;-72
2023/12/02 05:46:52;;;;;;;15.30;8.90;;;1.20;99.90;;;;;;4162718;28;20407;-71
2023/12/02 05:48:52;;;;;;;14.40;8.60;;;1.20;99.90;;;;;;4151202;28;20471;-72
2023/12/02 05:50:53;;;;;;;16.70;9.02;;;1.20;99.90;;;;;;4168519;28;20774;-72
2023/12/02 05:52:53;;;;;;;16.70;9.55;;;1.20;99.90;;;;;;4173034;28;20383;-73
2023/12/02 05:54:55;;;;;;;14.32;8.18;;;1.20;99.90;;;;;;4169614;28;20422;-74
2023/12/02 05:56:55;;;;;;;15.30;9.00;;;1.20;99.90;;;;;;4149677;28;20026;-73
2023/12/02 05:58:56;;;;;;;16.48;9.75;;;1.10;99.90;;;;;;4164167;28;20060;-72
2023/12/02 06:00:57;;;;;;;15.77;8.88;;;1.20;99.90;;;;;;4149697;28;20028;-72
2023/12/02 06:02:57;;;;;;;15.38;8.93;;;1.20;99.90;;;;;;4169602;28;20032;-73
2023/12/02 06:04:58;;;;;;;17.33;9.60;;;1.20;99.90;;;;;;4174393;28;20502;-72
2023/12/02 06:06:59;;;;;;;16.63;9.73;;;1.20;99.90;;;;;;4165312;28;20033;-73
2023/12/02 06:09:00;;;;;;;16.23;9.95;;;1.20;99.90;;;;;;4169344;28;20052;-73
2023/12/02 06:11:02;;;;;;;16.35;9.23;;;1.20;99.90;;;;;;4171824;28;20517;-73
2023/12/02 06:13:02;;;;;;;14.27;8.70;;;1.20;99.90;;;;;;4147427;28;20059;-72
2023/12/02 06:15:03;;;;;;;17.13;9.70;;;1.20;99.90;;;;;;4164026;28;20046;-73
2023/12/02 06:17:04;;;;;;;18.55;9.80;;;1.20;99.90;;;;;;4172558;28;20033;-73
2023/12/02 06:19:04;;;;;;;18.55;10.32;;;1.30;99.90;;;;;;4165677;28;20482;-74
2023/12/02 06:21:05;;;;;;;15.93;9.35;;;1.30;99.90;;;;;;4161793;28;20057;-73
2023/12/02 06:23:06;;;;;;;17.30;10.13;;;1.30;99.90;;;;;;4168608;28;20029;-73
2023/12/02 06:25:07;;;;;;;16.90;9.55;;;1.30;99.90;;;;;;4164557;28;20398;-73
2023/12/02 06:27:08;;;;;;;16.20;9.85;;;1.20;99.90;;;;;;4171263;28;20202;-72
2023/12/02 06:29:09;;;;;;;18.85;10.40;;;1.30;99.90;;;;;;4172884;28;20060;-73
2023/12/02 06:31:13;;;;;;;17.88;10.93;;;1.30;99.90;;;;;;4149486;28;20449;-73
2023/12/02 06:33:14;;;;;;;18.35;10.55;;;1.20;99.90;;;;;;4146785;28;20072;-73
2023/12/02 06:35:15;;;;;;;17.08;9.70;;;1.30;99.90;;;;;;4165862;28;20056;-73
2023/12/02 06:37:15;;;;;;;19.40;10.55;;;1.30;99.90;;;;;;4163376;28;20072;-73
2023/12/02 06:39:16;;;;;;;18.70;10.68;;;1.20;99.90;;;;;;4170861;28;20041;-73
2023/12/02 06:41:17;;;;;;;19.83;11.25;;;1.20;99.90;;;;;;4157681;28;20037;-73
2023/12/02 06:43:17;;;;;;;18.48;10.77;;;1.20;99.90;;;;;;4166388;28;20410;-73
2023/12/02 06:45:18;;;;;;;21.02;10.50;;;1.20;99.90;;;;;;4147131;28;20029;-73
2023/12/02 06:47:18;;;;;;;22.27;11.40;;;1.20;99.90;;;;;;4160984;28;20060;-72
2023/12/02 06:49:22;;;;;;;18.20;10.50;;;1.20;99.90;;;;;;4146963;28;20124;-72
2023/12/02 06:51:28;;;;;;;17.60;9.90;;;1.20;99.90;;;;;;4163107;28;20030;-71
2023/12/02 06:53:28;;;;;;;17.05;9.90;;;1.10;99.90;;;;;;4169912;28;20063;-72
2023/12/02 06:55:31;;;;;;;18.48;9.90;;;1.20;99.90;;;;;;4165889;28;20134;-71
2023/12/02 06:57:31;;;;;;;17.35;10.43;;;1.10;99.90;;;;;;4165874;28;20390;-71
2023/12/02 06:59:32;;;;;;;16.70;9.73;;;1.10;99.90;;;;;;4163311;28;20041;-72
2023/12/02 07:01:33;;;;;;;16.45;8.93;;;1.10;99.90;;;;;;4163173;28;20040;-72
2023/12/02 07:03:33;;;;;;;14.65;8.65;;;1.20;99.90;;;;;;4164560;28;20037;-70
2023/12/02 07:05:34;;;;;;;13.80;8.35;;;1.10;99.90;;;;;;4167050;28;20021;-72
2023/12/02 07:07:35;;;;;;;15.55;9.23;;;1.10;99.90;;;;;;4153509;28;20081;-73
2023/12/02 07:09:36;;;;;;;16.17;9.68;;;1.10;99.90;;;;;;4162923;28;20041;-72
2023/12/02 07:11:37;;;;;;;15.98;9.55;;;1.20;99.90;;;;;;4149743;28;20517;-71
2023/12/02 07:13:37;;;;;;;15.68;9.50;;;1.20;99.90;;;;;;4165700;28;20056;-72
2023/12/02 07:15:38;;;;;;;16.88;8.82;;;1.20;99.90;;;;;;4162107;28;20030;-73
2023/12/02 07:17:38;;;;;;;14.68;8.60;;;1.10;99.90;;;;;;4169933;28;20116;-73
2023/12/02 07:19:39;;;;;;;14.98;8.07;;;1.10;99.90;;;;;;4160659;28;20045;-73
2023/12/02 07:21:39;;;;;;;15.30;8.95;;;1.10;99.90;;;;;;4156990;28;20082;-73
2023/12/02 07:23:40;;;;;;;14.70;9.10;;;1.10;99.90;;;;;;4166156;28;20045;-72
2023/12/02 07:25:41;;;;;;;15.30;8.98;;;1.10;99.90;;;;;;4167309;28;20045;-73
2023/12/02 07:27:41;;;;;;;18.30;9.98;;;1.20;99.90;;;;;;4160617;28;20076;-72
2023/12/02 07:29:42;;;;;;;16.25;9.70;;;1.10;99.90;;;;;;4165726;28;20029;-73
2023/12/02 07:31:45;;;;;;;16.23;9.23;;;1.10;99.90;;;;;;4167174;28;20163;-72
2023/12/02 07:33:45;;;;;;;17.67;9.13;;;1.20;99.90;;;;;;4157055;28;20033;-73
2023/12/02 07:35:46;;;;;;;15.75;9.00;;;1.10;99.90;;;;;;4152667;28;20065;-72
2023/12/02 07:37:49;;;;;;;15.35;8.88;;;1.10;99.90;;;;;;4172328;28;20021;-73
2023/12/02 07:39:50;;;;;;;15.77;9.18;;;1.10;99.90;;;;;;4148840;28;20037;-72
2023/12/02 07:41:51;;;;;;;16.77;9.30;;;1.10;99.90;;;;;;4171259;28;20416;-72
2023/12/02 07:43:51;;;;;;;16.92;9.85;;;1.10;99.90;;;;;;4171314;28;20032;-72
2023/12/02 07:45:52;;;;;;;16.08;8.93;;;1.10;99.90;;;;;;4169657;28;20033;-73
2023/12/02 07:47:53;;;;;;;15.48;8.77;;;1.10;99.90;;;;;;4145251;28;20573;-72
2023/12/02 07:49:54;;;;;;;16.90;9.43;;;1.10;99.90;;;;;;4169119;28;20033;-73
2023/12/02 07:51:55;;;;;;;18.58;10.85;;;1.10;99.90;;;;;;4171235;28;20017;-73
2023/12/02 07:53:55;;;;;;;17.65;10.48;;;1.10;99.90;;;;;;4170477;28;20064;-72
2023/12/02 07:55:56;;;;;;;18.77;11.00;;;1.10;99.90;;;;;;4169963;28;20442;-72
2023/12/02 07:57:56;;;;;;;16.27;9.43;;;1.10;99.90;;;;;;4173053;28;20390;-72
2023/12/02 07:59:57;;;;;;;20.52;10.93;;;1.10;99.90;;;;;;4169243;28;20438;-72
2023/12/02 08:01:58;;;;;;;21.00;12.07;;;1.10;99.90;;;;;;4155197;28;20387;-71
2023/12/02 08:03:59;;;;;;;20.65;12.00;;;1.20;99.90;;;;;;4173862;28;20034;-70
2023/12/02 08:06:00;;;;;;;18.02;10.75;;;1.40;99.90;;;;;;4157174;28;20459;-70
2023/12/02 08:08:01;;;;;;;21.53;11.60;;;1.60;99.90;;;;;;4165423;28;20030;-73
2023/12/02 08:10:01;;;;;;;16.55;10.13;;;1.70;99.90;;;;;;4145398;28;20072;-70
2023/12/02 08:12:02;;;;;;;19.08;11.50;;;1.90;99.90;;;;;;4167933;28;20551;-71
2023/12/02 08:14:03;;;;;;;20.13;11.57;;;2.00;99.90;;;;;;4164801;28;20033;-70
2023/12/02 08:16:04;;;;;;;19.38;10.80;;;2.30;99.90;;;;;;4150352;28;20121;-72
2023/12/02 08:18:04;;;;;;;21.83;11.45;;;2.40;99.90;;;;;;4166511;28;20571;-71
2023/12/02 08:20:06;;;;;;;21.75;12.25;;;2.50;99.90;;;;;;4173093;28;20042;-71
2023/12/02 08:22:06;;;;;;;21.48;11.98;;;2.50;99.90;;;;;;4169313;28;20120;-72
2023/12/02 08:24:07;;;;;;;22.45;12.07;;;2.50;99.90;;;;;;4169995;28;20406;-72
2023/12/02 08:26:07;;;;;;;19.20;11.27;;;2.50;99.90;;;;;;4173247;28;20055;-71
2023/12/02 08:28:08;;;;;;;23.73;12.07;;;2.50;99.90;;;;;;4166793;28;20049;-71
2023/12/02 08:30:09;;;;;;;20.35;11.85;;;2.40;99.90;;;;;;4148783;28;20042;-72
2023/12/02 08:32:10;;;;;;;22.73;12.10;;;2.40;99.90;;;;;;4171649;28;20087;-71
2023/12/02 08:34:10;;;;;;;20.92;12.10;;;2.40;99.90;;;;;;4170563;28;20049;-71
2023/12/02 08:36:11;;;;;;;21.95;12.52;;;2.40;99.90;;;;;;4167638;28;20052;-72
2023/12/02 08:38:12;;;;;;;23.25;12.07;;;2.40;99.90;;;;;;4167974;28;20048;-72
2023/12/02 08:40:12;;;;;;;22.35;12.05;;;2.40;99.90;;;;;;4165842;28;20045;-71
2023/12/02 08:42:14;;;;;;;20.80;11.73;;;2.40;99.90;;;;;;4169059;28;20517;-72
2023/12/02 08:44:15;;;;;;;22.83;12.35;;;2.30;99.90;;;;;;4153875;28;20072;-73
2023/12/02 08:46:18;;;;;;;23.83;12.30;;;2.30;99.90;;;;;;4157873;28;20092;-72
2023/12/02 08:48:19;;;;;;;24.83;12.80;;;2.30;99.90;;;;;;4166178;28;20049;-71
2023/12/02 08:50:20;;;;;;;20.73;12.30;;;2.30;99.90;;;;;;4166618;28;20033;-72
2023/12/02 08:52:20;;;;;;;25.52;14.10;;;2.30;99.90;;;;;;4170847;28;20029;-72
2023/12/02 08:54:21;;;;;;;26.10;14.38;;;2.30;99.90;;;;;;4168992;28;20119;-72
2023/12/02 08:56:21;;;;;;;23.25;13.27;;;2.30;99.90;;;;;;4171229;28;20401;-71
2023/12/02 08:58:22;;;;;;;26.25;14.15;;;2.20;99.90;;;;;;4168835;28;20060;-71
2023/12/02 09:00:23;;;;;;;24.65;13.90;;;2.20;99.90;;;;;;4137110;28;20042;-71
2023/12/02 09:02:23;;;;;;;24.17;13.63;;;2.30;99.90;;;;;;4170169;28;20040;-70
2023/12/02 09:04:25;;;;;;;24.13;13.70;;;2.30;99.90;;;;;;4169372;28;20069;-69
2023/12/02 09:06:26;;;;;;;29.67;15.25;;;2.30;99.90;;;;;;4152868;28;20053;-71
2023/12/02 09:08:27;;;;;;;27.08;14.40;;;2.30;99.90;;;;;;4170094;28;20032;-72
2023/12/02 09:10:27;;;;;;;31.30;16.73;;;2.40;99.90;;;;;;4169314;28;20040;-71
2023/12/02 09:12:28;;;;;;;27.83;15.38;;;2.50;99.90;;;;;;4171355;28;20044;-71
2023/12/02 09:14:29;;;;;;;33.28;16.77;;;2.60;99.90;;;;;;4168590;28;20183;-72
2023/12/02 09:16:30;;;;;;;27.40;14.57;;;2.80;99.90;;;;;;4167024;28;20041;-73
2023/12/02 09:18:35;;;;;;;32.03;16.80;;;2.90;99.90;;;;;;4166172;28;20136;-71
2023/12/02 09:20:47;;;;;;;30.35;16.08;;;3.10;99.90;;;;;;4166477;28;20025;-71
2023/12/02 09:22:48;;;;;;;23.70;13.98;;;3.20;99.90;;;;;;4151941;28;20133;-71
2023/12/02 09:24:49;;;;;;;27.23;15.02;;;3.30;99.90;;;;;;4152596;28;20049;-72
2023/12/02 09:26:49;;;;;;;26.40;15.32;;;3.50;99.90;;;;;;4152468;28;20499;-71
2023/12/02 09:28:51;;;;;;;26.85;15.80;;;3.60;99.90;;;;;;4153026;28;20055;-73
2023/12/02 09:30:54;;;;;;;24.58;13.88;;;3.80;99.90;;;;;;4152356;28;20092;-69
2023/12/02 09:32:55;;;;;;;19.90;12.38;;;3.80;99.90;;;;;;4171275;28;20116;-72
2023/12/02 09:34:58;;;;;;;24.77;13.40;;;3.90;99.90;;;;;;4166327;28;20144;-71
2023/12/02 09:36:59;;;;;;;21.85;13.07;;;4.00;99.90;;;;;;4171363;28;20494;-73
2023/12/02 09:39:20;;;;;;;20.58;12.13;;;4.00;99.90;;;;;;4170470;28;20079;-70
2023/12/02 09:41:45;;;;;;;20.15;12.35;;;4.10;99.90;;;;;;4099705;28;20104;-70
2023/12/02 09:43:58;;;;;;;22.38;13.25;;;4.10;99.90;;;;;;4165058;28;21240;-70
2023/12/02 09:46:35;;;;;;;20.23;12.32;;;4.10;99.90;;;;;;4153105;28;20036;-70
2023/12/02 09:49:02;;;;;;;21.42;13.15;;;4.10;99.90;;;;;;4163651;28;20087;-70
2023/12/02 09:51:32;;;;;;;20.10;12.40;;;4.10;99.90;;;;;;4152593;28;20168;-70
2023/12/02 09:53:51;;;;;;;20.88;11.93;;;4.10;99.90;;;;;;4170740;28;20033;-71
2023/12/02 09:55:58;;;;;;;17.58;11.45;;;4.10;99.90;;;;;;4169525;28;20044;-74
2023/12/02 09:58:26;;;;;;;18.23;11.43;;;4.10;99.90;;;;;;4171364;28;20028;-72
2023/12/02 10:00:42;;;;;;;19.83;11.93;;;4.10;99.90;;;;;;4167601;28;20049;-70
2023/12/02 10:02:56;;;;;;;20.60;12.13;;;4.00;99.90;;;;;;4171498;28;20052;-70
2023/12/02 10:05:10;;;;;;;18.85;12.13;;;3.90;99.90;;;;;;4170117;28;20116;-73
2023/12/02 10:07:23;;;;;;;20.15;11.38;;;3.90;99.90;;;;;;4163922;28;20046;-70
2023/12/02 10:09:48;;;;;;;16.88;10.52;;;3.90;99.90;;;;;;4168852;28;20049;-70
2023/12/02 10:12:13;;;;;;;21.95;11.80;;;3.80;99.90;;;;;;4163225;28;20029;-70
2023/12/02 10:14:18;;;;;;;19.27;11.93;;;3.90;99.90;;;;;;4170646;28;20509;-72
2023/12/02 10:16:21;;;;;;;17.17;10.63;;;3.90;99.90;;;;;;4170094;28;20591;-70
2023/12/02 10:18:28;;;;;;;20.63;12.07;;;3.90;99.90;;;;;;4173411;28;20041;-70
2023/12/02 10:20:34;;;;;;;16.95;9.77;;;3.80;99.90;;;;;;4166918;28;20045;-70
2023/12/02 10:22:45;;;;;;;19.60;11.52;;;3.80;99.90;;;;;;4172977;28;20037;-74
2023/12/02 10:24:54;;;;;;;18.13;11.35;;;3.80;99.90;;;;;;4148723;28;20108;-75
2023/12/02 10:27:08;;;;;;;17.13;10.02;;;3.80;99.90;;;;;;4169035;28;20076;-75
2023/12/02 10:29:22;;;;;;;15.48;9.68;;;3.70;99.90;;;;;;4164196;28;20075;-75
2023/12/02 10:31:27;;;;;;;16.90;10.13;;;3.70;99.90;;;;;;4169141;28;20041;-74